Terminal Aerodrome Forecast
Issued by NWS Knoxville/Tri Cities, TN

Home | Current Version | Previous Version | Text Only | Print | Product List | Glossary On
Versions: 1 2 3 4 5 6 7 8 9 10 11 12 13 14 15 16 17 18 19 20 21 22 23 24 25 26 27 28 29 30 31 32 33 34 35 36 37 38 39 40 41 42 43 44 45 46 47
000
FTUS44 KMRX 161120
TAFCHA
TAF
KCHA 161120Z 1612/1712 18010KT P6SM VCSH OVC018
     FM161900 18011G18KT P6SM VCSH OVC025
     FM170000 18010KT P6SM -SHRA OVC015 PROB30 1702/1706 4SM TSRA BR
      BKN008 OVC025CB
     FM170600 20009KT 5SM -SHRA BR OVC007
     FM171000 30012KT P6SM VCSH OVC007=

USA.gov is the U.S. government's official web portal to all federal, state and local government web resources and services.